createdAt,value
2023-02-03T00:00:43.766Z,31.27
2023-02-03T00:03:12.489Z,39.47
2023-02-03T00:05:41.627Z,29.60
2023-02-03T00:08:11.295Z,35.40
2023-02-03T00:10:41.448Z,20.90
2023-02-03T00:13:10.732Z,30.93
2023-02-03T00:15:40.906Z,30.63
2023-02-03T00:18:09.492Z,31.60
2023-02-03T00:20:37.989Z,29.00
2023-02-03T00:23:07.458Z,32.13
2023-02-03T00:25:36.290Z,31.17
2023-02-03T00:28:05.976Z,30.90
2023-02-03T00:30:36.032Z,35.30
2023-02-03T00:33:07.561Z,29.40
2023-02-03T00:35:36.795Z,25.93
2023-02-03T00:38:05.596Z,33.60
2023-02-03T00:40:34.165Z,33.77
2023-02-03T00:43:02.755Z,25.53
2023-02-03T00:45:31.687Z,29.73
2023-02-03T00:48:00.621Z,29.13
2023-02-03T00:50:31.127Z,30.80
2023-02-03T00:52:59.540Z,24.30
2023-02-03T00:55:28.130Z,32.17
2023-02-03T00:57:56.841Z,23.53
2023-02-03T01:00:25.840Z,29.70
2023-02-03T01:02:54.780Z,29.80
2023-02-03T01:05:23.815Z,25.93
2023-02-03T01:07:53.712Z,26.20
2023-02-03T01:10:22.668Z,27.90
2023-02-03T01:12:51.349Z,32.57
2023-02-03T01:15:20.004Z,28.30
2023-02-03T01:17:48.746Z,25.77
2023-02-03T01:20:17.673Z,21.37
2023-02-03T01:22:46.601Z,17.20
2023-02-03T01:25:16.735Z,23.57
2023-02-03T01:27:45.631Z,26.30
2023-02-03T01:30:14.807Z,24.73
2023-02-03T01:32:43.663Z,28.40
2023-02-03T01:35:12.697Z,29.57
2023-02-03T01:37:42.960Z,25.57
2023-02-03T01:40:12.148Z,19.47
2023-02-03T01:42:42.457Z,24.93
2023-02-03T01:45:13.528Z,23.20
2023-02-03T01:47:45.412Z,27.30
2023-02-03T01:50:15.506Z,25.83
2023-02-03T01:52:48.080Z,19.67
2023-02-03T01:55:19.558Z,22.90
2023-02-03T01:57:51.838Z,29.30
2023-02-03T02:00:20.878Z,20.87
2023-02-03T02:02:50.179Z,24.83
2023-02-03T02:05:22.376Z,24.87
2023-02-03T02:07:52.114Z,21.43
2023-02-03T02:10:20.768Z,28.20
2023-02-03T02:12:50.886Z,31.93
2023-02-03T02:15:19.759Z,26.20
2023-02-03T02:17:56.570Z,20.43
2023-02-03T02:20:37.932Z,25.60
2023-02-03T02:23:27.488Z,19.53
2023-02-03T02:26:04.993Z,27.73
2023-02-03T02:28:51.668Z,25.30
2023-02-03T02:31:35.619Z,27.60
2023-02-03T02:34:09.511Z,25.77
2023-02-03T02:36:44.716Z,26.57
2023-02-03T02:39:15.741Z,23.20
2023-02-03T02:41:46.619Z,23.30
2023-02-03T02:44:18.940Z,25.07
2023-02-03T02:46:50.165Z,24.20
2023-02-03T02:49:20.316Z,24.57
2023-02-03T02:51:50.293Z,20.17
2023-02-03T02:54:20.648Z,19.33
2023-02-03T02:56:51.689Z,21.53
2023-02-03T02:59:20.384Z,17.30
2023-02-03T03:01:51.465Z,18.20
2023-02-03T03:04:21.405Z,21.20
2023-02-03T03:06:50.978Z,19.20
2023-02-03T03:09:22.182Z,21.63
2023-02-03T03:11:52.107Z,19.27
2023-02-03T03:14:21.569Z,15.77
2023-02-03T03:16:54.431Z,17.03
2023-02-03T03:19:24.516Z,24.10
2023-02-03T03:21:56.337Z,20.03
2023-02-03T03:24:28.247Z,19.83
2023-02-03T03:26:58.321Z,21.47
2023-02-03T03:29:28.278Z,21.93
2023-02-03T03:31:58.475Z,22.43
2023-02-03T03:34:27.426Z,19.23
2023-02-03T03:37:00.404Z,21.77
2023-02-03T03:39:31.448Z,16.13
2023-02-03T03:42:03.135Z,24.03
2023-02-03T03:44:33.930Z,17.17
2023-02-03T03:47:08.252Z,16.30
2023-02-03T03:49:37.793Z,20.50
2023-02-03T03:52:08.633Z,17.23
2023-02-03T03:54:39.107Z,20.13
2023-02-03T03:57:15.196Z,21.37
2023-02-03T03:59:46.494Z,20.20
2023-02-03T04:02:17.029Z,17.63
2023-02-03T04:04:46.774Z,19.73
2023-02-03T04:07:16.375Z,18.00
2023-02-03T04:09:44.859Z,16.97
2023-02-03T04:12:18.125Z,21.57
2023-02-03T04:14:47.034Z,15.80
2023-02-03T04:17:20.249Z,21.43
2023-02-03T04:19:49.651Z,20.60
2023-02-03T04:22:18.424Z,18.57
2023-02-03T04:24:47.185Z,19.20
2023-02-03T04:27:15.973Z,10.87
2023-02-03T04:29:44.771Z,13.93
2023-02-03T04:32:13.273Z,18.77
2023-02-03T04:34:43.275Z,13.87
2023-02-03T04:37:11.677Z,14.53
2023-02-03T04:39:40.522Z,15.97
2023-02-03T04:42:09.046Z,12.80
2023-02-03T04:44:37.666Z,13.07
2023-02-03T04:47:06.363Z,13.20
2023-02-03T04:49:35.201Z,15.70
2023-02-03T04:52:05.336Z,11.57
2023-02-03T04:54:34.483Z,15.53
2023-02-03T04:57:03.323Z,12.97
2023-02-03T04:59:31.779Z,15.23
2023-02-03T05:02:00.485Z,10.40
2023-02-03T05:04:29.043Z,13.77
2023-02-03T05:06:57.753Z,11.20
2023-02-03T05:09:27.805Z,11.33
2023-02-03T05:11:56.484Z,11.33
2023-02-03T05:14:25.175Z,9.20
2023-02-03T05:16:54.115Z,11.23
2023-02-03T05:19:22.583Z,13.07
2023-02-03T05:21:51.547Z,12.63
2023-02-03T05:24:20.095Z,16.83
2023-02-03T05:26:49.985Z,9.93
2023-02-03T05:29:18.517Z,11.00
2023-02-03T05:31:47.050Z,8.93
2023-02-03T05:34:15.679Z,7.37
2023-02-03T05:36:44.104Z,10.97
2023-02-03T05:39:12.563Z,8.33
2023-02-03T05:41:57.332Z,9.47
2023-02-03T05:44:29.687Z,11.77
2023-02-03T05:46:59.338Z,8.50
2023-02-03T05:49:28.116Z,7.93
2023-02-03T05:51:57.119Z,11.07
2023-02-03T05:54:25.716Z,8.47
2023-02-03T05:56:54.266Z,13.27
2023-02-03T05:59:22.684Z,9.37
2023-02-03T06:01:52.728Z,8.47
2023-02-03T06:04:21.236Z,11.63
2023-02-03T06:06:49.818Z,13.53
2023-02-03T06:09:18.430Z,9.53
2023-02-03T06:11:46.925Z,10.47
2023-02-03T06:14:15.465Z,7.43
2023-02-03T06:16:44.032Z,7.67
2023-02-03T06:19:16.309Z,7.43
2023-02-03T06:21:45.023Z,11.00
2023-02-03T06:24:13.687Z,8.07
2023-02-03T06:26:42.286Z,6.57
2023-02-03T06:29:10.850Z,12.17
2023-02-03T06:31:39.768Z,8.87
2023-02-03T06:34:08.390Z,12.30
2023-02-03T06:36:38.224Z,12.27
2023-02-03T06:39:06.771Z,7.83
2023-02-03T06:41:35.188Z,10.23
2023-02-03T06:44:03.769Z,9.70
2023-02-03T06:46:34.358Z,12.07
2023-02-03T06:49:03.986Z,15.07
2023-02-03T06:51:32.522Z,9.67
2023-02-03T06:54:03.592Z,9.00
2023-02-03T06:56:32.523Z,12.33
2023-02-03T06:59:00.958Z,11.50
2023-02-03T07:01:29.882Z,10.13
2023-02-03T07:04:04.349Z,11.77
2023-02-03T07:06:34.405Z,14.27
2023-02-03T07:09:05.741Z,7.83
2023-02-03T07:11:34.765Z,9.80
2023-02-03T07:14:04.062Z,9.93
2023-02-03T07:16:34.247Z,9.23
2023-02-03T07:19:02.709Z,8.83
2023-02-03T07:21:31.321Z,11.70
2023-02-03T07:23:59.989Z,9.90
2023-02-03T07:26:30.159Z,8.60
2023-02-03T07:29:00.833Z,8.43
2023-02-03T07:31:29.879Z,15.20
2023-02-03T07:33:58.624Z,8.50
2023-02-03T07:36:28.163Z,12.13
2023-02-03T07:38:56.881Z,10.60
2023-02-03T07:41:25.284Z,12.23
2023-02-03T07:43:55.097Z,11.93
2023-02-03T07:46:23.706Z,11.50
2023-02-03T07:48:52.154Z,12.63
2023-02-03T07:51:20.983Z,17.07
2023-02-03T07:53:49.401Z,16.37
2023-02-03T07:56:18.094Z,13.03
2023-02-03T07:58:46.474Z,17.03
2023-02-03T08:01:17.162Z,15.27
2023-02-03T08:03:45.875Z,12.83
2023-02-03T08:06:14.452Z,15.27
2023-02-03T08:08:43.716Z,11.90
2023-02-03T08:11:12.486Z,13.07
2023-02-03T08:13:41.251Z,12.83
2023-02-03T08:16:09.947Z,11.47
2023-02-03T08:18:39.940Z,15.23
2023-02-03T08:21:08.651Z,11.07
2023-02-03T08:23:37.320Z,14.43
2023-02-03T08:26:07.012Z,12.63
2023-02-03T08:28:35.531Z,9.93
2023-02-03T08:31:04.430Z,17.67
2023-02-03T08:33:33.045Z,16.67
2023-02-03T08:36:03.081Z,13.47
2023-02-03T08:38:31.447Z,14.27
2023-02-03T08:41:00.217Z,10.93
2023-02-03T08:43:28.844Z,19.33
2023-02-03T08:45:57.277Z,15.77
2023-02-03T08:48:27.609Z,14.53
2023-02-03T08:50:56.079Z,11.90
2023-02-03T08:53:26.091Z,20.57
2023-02-03T08:55:55.465Z,9.83
2023-02-03T08:58:23.925Z,15.37
2023-02-03T09:00:53.351Z,12.30
2023-02-03T09:03:22.570Z,10.67
2023-02-03T09:05:53.518Z,9.50
2023-02-03T09:08:21.981Z,13.13
2023-02-03T09:10:52.431Z,10.37
2023-02-03T09:13:21.286Z,10.30
2023-02-03T09:15:49.787Z,13.43
2023-02-03T09:18:19.745Z,15.50
2023-02-03T09:20:48.430Z,9.67
2023-02-03T09:23:19.672Z,10.50
2023-02-03T09:25:49.556Z,11.27
2023-02-03T09:28:19.644Z,9.97
2023-02-03T09:30:48.282Z,15.70
2023-02-03T09:33:18.557Z,8.40
2023-02-03T09:35:53.503Z,13.67
2023-02-03T09:38:23.400Z,15.00
2023-02-03T09:41:09.397Z,12.67
2023-02-03T09:43:46.694Z,12.67
2023-02-03T09:46:18.200Z,9.00
2023-02-03T09:48:51.148Z,13.87
2023-02-03T09:51:25.696Z,15.63
2023-02-03T09:53:58.906Z,9.50
2023-02-03T09:56:29.388Z,10.87
2023-02-03T09:59:00.504Z,10.13
2023-02-03T10:01:32.545Z,12.63
2023-02-03T10:04:06.358Z,12.33
2023-02-03T10:06:42.333Z,9.07
2023-02-03T10:09:21.399Z,14.00
2023-02-03T10:11:56.670Z,7.07
2023-02-03T10:14:35.022Z,10.40
2023-02-03T10:17:14.144Z,8.50
2023-02-03T10:22:29.246Z,8.93
2023-02-03T10:25:00.622Z,9.27
2023-02-03T10:27:37.227Z,11.90
2023-02-03T10:30:09.735Z,7.90
2023-02-03T10:32:38.608Z,8.77
2023-02-03T10:35:18.531Z,7.80
2023-02-03T10:37:50.211Z,7.17
2023-02-03T10:40:24.932Z,7.70
2023-02-03T10:43:12.590Z,10.20
2023-02-03T10:45:44.719Z,8.70
2023-02-03T10:48:15.867Z,9.97
2023-02-03T10:50:46.164Z,8.20
2023-02-03T10:53:25.684Z,12.30
2023-02-03T10:56:02.238Z,11.20
2023-02-03T10:58:31.944Z,9.20
2023-02-03T11:01:11.764Z,7.63
2023-02-03T11:03:41.787Z,9.23
2023-02-03T11:06:11.530Z,6.77
2023-02-03T11:08:40.826Z,9.70
2023-02-03T11:11:13.182Z,12.77
2023-02-03T11:13:41.624Z,9.07
2023-02-03T11:16:15.797Z,8.53
2023-02-03T11:18:47.808Z,6.37
2023-02-03T11:21:25.603Z,6.90
2023-02-03T11:23:55.836Z,8.10
2023-02-03T11:26:28.376Z,7.60
2023-02-03T11:28:59.253Z,9.77
2023-02-03T11:31:32.292Z,7.97
2023-02-03T11:34:02.289Z,6.63
2023-02-03T11:36:31.606Z,6.00
2023-02-03T11:39:14.241Z,7.93
2023-02-03T11:41:53.600Z,12.07
2023-02-03T11:44:34.424Z,6.47
2023-02-03T11:47:06.273Z,6.77
2023-02-03T11:49:58.761Z,6.97
2023-02-03T11:52:56.227Z,8.57
2023-02-03T11:55:32.989Z,10.17
2023-02-03T11:58:09.145Z,11.50
2023-02-03T12:00:40.750Z,6.97
2023-02-03T12:03:19.249Z,7.60
2023-02-03T12:06:00.789Z,9.53
2023-02-03T12:08:37.065Z,10.30
2023-02-03T12:11:10.700Z,8.53
2023-02-03T12:13:59.398Z,7.63
2023-02-03T12:16:40.439Z,7.57
2023-02-03T12:19:15.445Z,13.63
2023-02-03T12:21:45.967Z,13.70
2023-02-03T12:24:29.545Z,7.90
2023-02-03T12:27:03.601Z,11.00
2023-02-03T12:29:33.321Z,8.63
2023-02-03T12:32:06.778Z,11.70
2023-02-03T12:34:39.504Z,9.53
2023-02-03T12:37:11.563Z,7.97
2023-02-03T12:39:42.592Z,10.13
2023-02-03T12:42:14.751Z,9.57
2023-02-03T12:44:46.483Z,8.00
2023-02-03T12:47:16.868Z,10.07
2023-02-03T12:49:49.158Z,8.57
2023-02-03T12:52:22.241Z,7.40
2023-02-03T12:54:54.685Z,8.07
2023-02-03T12:57:26.907Z,11.63
2023-02-03T13:00:03.250Z,14.47
2023-02-03T13:02:34.556Z,6.97
2023-02-03T13:05:08.309Z,13.10
2023-02-03T13:07:41.156Z,11.70
2023-02-03T13:10:17.921Z,9.30
2023-02-03T13:12:49.891Z,8.40
2023-02-03T13:15:22.568Z,9.00
2023-02-03T13:17:54.423Z,12.37
2023-02-03T13:20:25.581Z,18.93
2023-02-03T13:22:57.054Z,12.93
2023-02-03T13:25:27.856Z,11.57
2023-02-03T13:28:01.489Z,14.23
2023-02-03T13:30:45.550Z,14.90
2023-02-03T13:33:45.641Z,13.10
2023-02-03T13:36:26.743Z,12.37
2023-02-03T13:39:09.567Z,9.37
2023-02-03T13:41:42.028Z,10.97
2023-02-03T13:44:14.275Z,18.93
2023-02-03T13:46:43.406Z,7.97
2023-02-03T13:49:12.124Z,16.93
2023-02-03T13:51:46.444Z,13.13
2023-02-03T13:54:17.892Z,15.93
2023-02-03T13:56:55.265Z,20.83
2023-02-03T13:59:41.941Z,12.83
2023-02-03T14:02:30.815Z,17.83
2023-02-03T14:05:02.228Z,17.10
2023-02-03T14:07:34.623Z,9.30
2023-02-03T14:10:23.449Z,11.70
2023-02-03T14:13:00.383Z,13.33
2023-02-03T14:15:33.693Z,14.50
2023-02-03T14:18:08.405Z,18.70
2023-02-03T14:20:40.478Z,10.33
2023-02-03T14:23:12.507Z,13.13
2023-02-03T14:25:43.521Z,15.80
2023-02-03T14:28:13.887Z,11.13
2023-02-03T14:31:01.326Z,14.63
2023-02-03T14:33:47.064Z,16.77
2023-02-03T14:36:36.240Z,15.77
2023-02-03T14:39:22.986Z,19.03
2023-02-03T14:41:57.717Z,14.20
2023-02-03T14:44:33.164Z,18.67
2023-02-03T14:47:08.332Z,9.47
2023-02-03T14:49:42.929Z,13.23
2023-02-03T14:52:19.224Z,16.13
2023-02-03T14:55:04.939Z,16.23
2023-02-03T14:57:39.792Z,22.43
2023-02-03T15:00:10.967Z,30.90
2023-02-03T15:02:59.583Z,18.80
2023-02-03T15:05:38.923Z,17.00
2023-02-03T15:08:27.874Z,13.67
2023-02-03T15:10:58.331Z,10.90
2023-02-03T15:13:27.474Z,13.37
2023-02-03T15:15:57.460Z,17.13
2023-02-03T15:18:30.439Z,14.83
2023-02-03T15:20:59.367Z,12.50
2023-02-03T15:23:28.857Z,12.83
2023-02-03T15:25:59.949Z,17.27
2023-02-03T15:28:29.428Z,12.97
2023-02-03T15:31:01.059Z,8.80
2023-02-03T15:33:31.385Z,17.00
2023-02-03T15:36:02.935Z,19.50
2023-02-03T15:38:33.183Z,23.70
2023-02-03T15:41:03.117Z,18.93
2023-02-03T15:43:36.895Z,16.10
2023-02-03T15:46:12.032Z,17.23
2023-02-03T15:48:43.632Z,14.43
2023-02-03T15:51:16.089Z,16.30
2023-02-03T15:53:50.160Z,24.30
2023-02-03T15:56:26.670Z,12.33
2023-02-03T15:58:55.345Z,8.13
2023-02-03T16:01:28.293Z,19.57
2023-02-03T16:03:57.992Z,13.23
2023-02-03T16:06:28.678Z,17.97
2023-02-03T16:08:57.561Z,21.37
2023-02-03T16:11:32.711Z,22.83
2023-02-03T16:14:04.800Z,16.10
2023-02-03T16:16:37.192Z,14.23
2023-02-03T16:19:08.279Z,14.47
2023-02-03T16:21:37.811Z,17.73
2023-02-03T16:24:09.391Z,13.57
2023-02-03T16:26:39.608Z,16.40
2023-02-03T16:29:32.651Z,14.90
2023-02-03T16:32:19.227Z,10.77
2023-02-03T16:35:06.148Z,11.97
2023-02-03T16:37:53.647Z,16.83
2023-02-03T16:40:40.742Z,9.27
2023-02-03T16:43:31.555Z,21.73
2023-02-03T16:46:18.204Z,21.37
2023-02-03T16:49:04.320Z,19.13
2023-02-03T16:51:36.247Z,21.93
2023-02-03T16:54:05.889Z,9.60
2023-02-03T16:56:34.493Z,16.17
2023-02-03T16:59:05.122Z,18.87
2023-02-03T17:01:33.914Z,12.87
2023-02-03T17:04:02.521Z,10.70
2023-02-03T17:06:32.893Z,18.47
2023-02-03T17:09:01.372Z,9.07
2023-02-03T17:11:29.772Z,13.50
2023-02-03T17:13:58.888Z,18.53
2023-02-03T17:16:29.409Z,17.53
2023-02-03T17:18:58.098Z,14.03
2023-02-03T17:21:27.218Z,6.87
2023-02-03T17:23:55.583Z,14.00
2023-02-03T17:26:24.152Z,8.00
2023-02-03T17:29:03.615Z,15.47
2023-02-03T17:31:33.879Z,19.30
2023-02-03T17:34:03.027Z,10.80
2023-02-03T17:36:35.683Z,11.80
2023-02-03T17:55:33.533Z,10.07
2023-02-03T17:58:02.897Z,14.73
2023-02-03T18:00:31.681Z,9.70
2023-02-03T18:03:01.921Z,15.77
2023-02-03T18:05:31.391Z,11.87
2023-02-03T18:08:05.901Z,16.47
2023-02-03T18:10:40.684Z,21.57
2023-02-03T18:13:09.407Z,15.97
2023-02-03T18:15:39.964Z,15.27
2023-02-03T18:18:10.401Z,9.67
2023-02-03T18:20:38.856Z,10.87
2023-02-03T18:23:07.253Z,11.90
2023-02-03T18:25:36.806Z,14.90
2023-02-03T18:28:05.952Z,9.97
2023-02-03T18:30:34.976Z,13.67
2023-02-03T18:33:04.014Z,10.57
2023-02-03T18:35:35.378Z,15.17
2023-02-03T18:38:04.277Z,14.33
2023-02-03T18:40:32.968Z,13.53
2023-02-03T18:43:02.318Z,10.23
2023-02-03T18:45:30.892Z,10.67
2023-02-03T18:48:00.951Z,11.33
2023-02-03T18:50:29.642Z,13.23
2023-02-03T18:52:59.798Z,10.23
2023-02-03T18:55:28.420Z,9.87
2023-02-03T18:57:57.013Z,11.83
2023-02-03T19:00:26.501Z,13.93
2023-02-03T19:02:55.507Z,10.30
2023-02-03T19:05:24.105Z,10.33
2023-02-03T19:07:52.651Z,11.00
2023-02-03T19:10:22.586Z,16.90
2023-02-03T19:12:51.104Z,10.47
2023-02-03T19:15:20.057Z,18.07
2023-02-03T19:17:48.446Z,9.87
2023-02-03T19:20:17.887Z,19.20
2023-02-03T19:22:46.565Z,7.70
2023-02-03T19:25:15.200Z,11.07
2023-02-03T19:27:45.075Z,9.43
2023-02-03T19:30:14.230Z,6.70
2023-02-03T19:32:42.664Z,8.97
2023-02-03T19:35:11.704Z,20.00
2023-02-03T19:37:40.200Z,14.33
2023-02-03T19:40:09.313Z,14.13
2023-02-03T19:42:37.819Z,14.30
2023-02-03T19:45:08.419Z,6.27
2023-02-03T19:47:36.878Z,10.37
2023-02-03T19:50:06.557Z,17.13
2023-02-03T19:52:35.029Z,10.90
2023-02-03T19:55:03.829Z,9.97
2023-02-03T19:57:32.487Z,10.67
2023-02-03T20:00:01.180Z,8.97
2023-02-03T20:02:31.188Z,8.67
2023-02-03T20:04:59.976Z,11.27
2023-02-03T20:07:28.641Z,18.37
2023-02-03T20:09:57.526Z,11.67
2023-02-03T20:12:28.198Z,12.17
2023-02-03T20:14:56.827Z,13.17
2023-02-03T20:17:25.385Z,14.30
2023-02-03T20:19:55.353Z,11.03
2023-02-03T20:22:24.172Z,13.17
2023-02-03T20:24:52.677Z,6.53
2023-02-03T20:27:21.476Z,14.17
2023-02-03T20:29:50.821Z,9.37
2023-02-03T20:32:19.592Z,11.00
2023-02-03T20:34:48.046Z,15.10
2023-02-03T20:37:18.170Z,15.50
2023-02-03T20:39:46.943Z,21.00
2023-02-03T20:42:16.985Z,16.00
2023-02-03T20:44:45.749Z,14.83
2023-02-03T20:47:15.300Z,11.07
2023-02-03T20:49:44.311Z,9.87
2023-02-03T20:52:14.522Z,16.47
2023-02-03T20:54:44.535Z,15.23
2023-02-03T20:57:15.180Z,12.57
2023-02-03T20:59:44.968Z,14.40
2023-02-03T21:02:22.093Z,16.77
2023-02-03T21:04:59.266Z,19.10
2023-02-03T21:07:31.013Z,13.67
2023-02-03T21:10:01.856Z,15.00
2023-02-03T21:12:30.648Z,20.03
2023-02-03T21:14:59.059Z,9.83
2023-02-03T21:17:28.567Z,17.87
2023-02-03T21:19:57.465Z,6.90
2023-02-03T21:22:27.263Z,14.67
2023-02-03T21:24:57.842Z,15.73
2023-02-03T21:27:29.437Z,14.23
2023-02-03T21:29:58.684Z,16.17
2023-02-03T21:32:33.002Z,16.43
2023-02-03T21:35:02.627Z,13.13
2023-02-03T21:37:42.457Z,22.97
2023-02-03T21:40:20.386Z,27.00
2023-02-03T21:42:50.391Z,9.30
2023-02-03T21:45:31.094Z,14.93
2023-02-03T21:48:00.313Z,12.20
2023-02-03T21:50:30.056Z,9.97
2023-02-03T21:52:59.240Z,23.63
2023-02-03T21:55:27.897Z,19.53
2023-02-03T21:57:58.132Z,17.00
2023-02-03T22:00:43.151Z,17.07
2023-02-03T22:03:20.253Z,21.20
2023-02-03T22:05:49.021Z,17.33
2023-02-03T22:08:20.420Z,20.20
2023-02-03T22:10:49.411Z,17.63
2023-02-03T22:13:20.172Z,21.77
2023-02-03T22:15:50.455Z,10.47
2023-02-03T22:18:18.884Z,15.53
2023-02-03T22:20:47.479Z,14.90
2023-02-03T22:23:18.270Z,15.90
2023-02-03T22:25:46.684Z,10.63
2023-02-03T22:28:15.425Z,20.90
2023-02-03T22:30:45.550Z,19.23
2023-02-03T22:33:14.312Z,15.30
2023-02-03T22:35:42.879Z,21.63
2023-02-03T22:38:11.688Z,7.47
2023-02-03T22:40:40.095Z,14.90
2023-02-03T22:43:08.540Z,12.17
2023-02-03T22:45:36.937Z,10.90
2023-02-03T22:48:07.355Z,17.40
2023-02-03T22:50:36.772Z,13.67
2023-02-03T22:53:06.012Z,11.40
2023-02-03T22:55:35.447Z,15.43
2023-02-03T22:58:04.215Z,16.23
2023-02-03T23:00:33.257Z,20.50
2023-02-03T23:03:01.726Z,12.07
2023-02-03T23:05:31.874Z,27.20
2023-02-03T23:08:00.451Z,25.63
2023-02-03T23:10:31.256Z,18.77
2023-02-03T23:13:00.728Z,11.90
2023-02-03T23:15:29.894Z,10.70
2023-02-03T23:17:58.740Z,18.77
2023-02-03T23:20:27.132Z,17.03
2023-02-03T23:22:57.497Z,18.80
2023-02-03T23:25:29.700Z,13.30
2023-02-03T23:27:58.449Z,15.93
2023-02-03T23:30:27.161Z,17.07
2023-02-03T23:32:56.713Z,16.53
2023-02-03T23:35:42.437Z,7.40
2023-02-03T23:38:12.562Z,13.33
2023-02-03T23:40:41.194Z,13.63
2023-02-03T23:43:09.804Z,15.73
2023-02-03T23:45:38.268Z,8.70
2023-02-03T23:48:07.254Z,7.33
2023-02-03T23:50:35.885Z,15.87
2023-02-03T23:53:04.538Z,18.07
2023-02-03T23:55:36.342Z,15.53
2023-02-03T23:58:06.169Z,14.47
